createdAt,value
2022-12-29T00:01:48.570Z,5.93
2022-12-29T00:04:17.347Z,5.97
2022-12-29T00:06:45.488Z,6.02
2022-12-29T00:09:14.004Z,6.04
2022-12-29T00:11:42.001Z,6.04
2022-12-29T00:14:53.749Z,6.11
2022-12-29T00:17:21.588Z,6.10
2022-12-29T00:20:06.799Z,6.11
2022-12-29T00:22:52.704Z,6.17
2022-12-29T00:25:37.978Z,6.25
2022-12-29T00:28:27.209Z,6.24
2022-12-29T00:31:18.794Z,6.30
2022-12-29T00:34:04.033Z,6.36
2022-12-29T00:36:34.660Z,6.39
2022-12-29T00:39:25.903Z,6.45
2022-12-29T00:42:11.394Z,6.45
2022-12-29T00:44:39.237Z,6.45
2022-12-29T00:47:08.537Z,6.45
2022-12-29T00:49:35.484Z,6.48
2022-12-29T00:52:05.480Z,6.55
2022-12-29T00:54:35.006Z,6.61
2022-12-29T00:57:04.008Z,6.66
2022-12-29T00:59:32.592Z,6.66
2022-12-29T01:02:00.536Z,6.69
2022-12-29T01:04:31.350Z,6.73
2022-12-29T01:06:59.171Z,6.74
2022-12-29T01:09:44.959Z,6.75
2022-12-29T01:12:13.074Z,6.81
2022-12-29T01:14:42.891Z,6.94
2022-12-29T01:17:10.737Z,6.93
2022-12-29T01:19:40.086Z,7.04
2022-12-29T01:22:08.204Z,7.11
2022-12-29T01:24:36.419Z,7.14
2022-12-29T01:27:04.357Z,7.15
2022-12-29T01:29:32.661Z,7.17
2022-12-29T01:32:00.582Z,7.19
2022-12-29T01:34:28.484Z,7.24
2022-12-29T01:36:58.368Z,7.28
2022-12-29T01:39:26.498Z,7.30
2022-12-29T01:41:54.336Z,7.35
2022-12-29T01:44:51.944Z,7.34
2022-12-29T01:47:26.699Z,7.33
2022-12-29T01:49:56.594Z,7.38
2022-12-29T01:52:29.038Z,7.40
2022-12-29T01:54:59.272Z,7.38
2022-12-29T01:57:30.103Z,7.35
2022-12-29T02:00:06.442Z,7.35
2022-12-29T02:02:42.128Z,7.35
2022-12-29T02:05:16.141Z,7.35
2022-12-29T02:07:50.612Z,7.44
2022-12-29T02:10:21.301Z,7.42
2022-12-29T02:12:49.887Z,7.42
2022-12-29T02:15:18.903Z,7.42
2022-12-29T02:18:03.154Z,7.39
2022-12-29T02:20:52.523Z,7.40
2022-12-29T02:24:00.496Z,7.44
2022-12-29T02:26:45.085Z,7.53
2022-12-29T02:29:50.317Z,7.58
2022-12-29T02:32:29.290Z,7.59
2022-12-29T02:35:06.183Z,7.60
2022-12-29T02:37:44.120Z,7.60
2022-12-29T02:40:20.916Z,7.61
2022-12-29T02:42:54.032Z,7.64
2022-12-29T02:45:26.329Z,7.69
2022-12-29T02:48:04.986Z,7.67
2022-12-29T02:50:37.513Z,7.70
2022-12-29T02:53:08.863Z,7.77
2022-12-29T02:55:35.825Z,7.73
2022-12-29T02:58:18.647Z,7.76
2022-12-29T03:00:58.609Z,7.77
2022-12-29T03:03:42.641Z,7.83
2022-12-29T03:06:25.326Z,7.85
2022-12-29T03:09:00.933Z,7.82
2022-12-29T03:11:55.119Z,7.83
2022-12-29T03:14:47.131Z,7.87
2022-12-29T03:17:24.757Z,7.93
2022-12-29T03:19:59.120Z,7.92
2022-12-29T03:22:34.222Z,7.94
2022-12-29T03:25:16.249Z,7.91
2022-12-29T03:27:47.391Z,7.91
2022-12-29T03:30:15.985Z,7.91
2022-12-29T03:32:48.770Z,7.91
2022-12-29T03:35:22.074Z,7.91
2022-12-29T03:37:57.296Z,7.88
2022-12-29T03:40:26.531Z,7.86
2022-12-29T03:42:55.425Z,7.90
2022-12-29T03:45:23.896Z,7.90
2022-12-29T03:47:53.500Z,7.87
2022-12-29T03:50:22.796Z,7.88
2022-12-29T03:52:50.804Z,7.85
2022-12-29T03:55:18.808Z,7.84
2022-12-29T03:57:47.168Z,7.88
2022-12-29T04:00:20.966Z,7.93
2022-12-29T04:02:51.445Z,7.90
2022-12-29T04:05:23.547Z,7.91
2022-12-29T04:07:54.723Z,7.88
2022-12-29T04:10:22.537Z,7.85
2022-12-29T04:12:53.539Z,7.89
2022-12-29T04:15:21.437Z,7.91
2022-12-29T04:17:50.144Z,7.97
2022-12-29T04:20:36.512Z,7.98
2022-12-29T04:23:09.275Z,8.07
2022-12-29T04:25:38.828Z,8.04
2022-12-29T04:28:09.555Z,8.01
2022-12-29T04:31:08.863Z,8.02
2022-12-29T04:33:40.285Z,8.08
2022-12-29T04:36:08.813Z,8.07
2022-12-29T04:38:39.932Z,8.03
2022-12-29T04:41:08.239Z,8.03
2022-12-29T04:43:39.041Z,8.01
2022-12-29T04:46:25.377Z,8.11
2022-12-29T04:49:09.610Z,8.16
2022-12-29T04:51:56.144Z,8.16
2022-12-29T04:54:26.160Z,8.24
2022-12-29T04:57:06.677Z,8.31
2022-12-29T04:59:35.531Z,8.42
2022-12-29T05:02:03.480Z,8.42
2022-12-29T05:04:33.777Z,8.43
2022-12-29T05:07:01.712Z,8.43
2022-12-29T05:09:31.332Z,8.37
2022-12-29T05:12:00.334Z,8.41
2022-12-29T05:14:28.406Z,8.41
2022-12-29T05:16:56.456Z,8.41
2022-12-29T05:19:24.462Z,8.41
2022-12-29T05:21:52.872Z,8.43
2022-12-29T05:24:22.107Z,8.41
2022-12-29T05:26:51.467Z,8.37
2022-12-29T05:29:34.466Z,8.38
2022-12-29T05:32:02.907Z,8.36
2022-12-29T05:34:30.934Z,8.39
2022-12-29T05:36:58.777Z,8.49
2022-12-29T05:39:26.697Z,8.46
2022-12-29T05:41:59.988Z,8.49
2022-12-29T05:44:37.132Z,8.53
2022-12-29T05:47:19.793Z,8.59
2022-12-29T05:50:03.009Z,8.63
2022-12-29T05:52:40.428Z,8.70
2022-12-29T05:55:09.245Z,8.64
2022-12-29T05:57:39.414Z,8.70
2022-12-29T06:00:15.139Z,8.69
2022-12-29T06:02:43.083Z,8.70
2022-12-29T06:05:11.536Z,8.74
2022-12-29T06:07:40.857Z,8.78
2022-12-29T06:10:10.261Z,8.69
2022-12-29T06:12:47.192Z,8.72
2022-12-29T06:15:16.626Z,8.75
2022-12-29T06:17:46.077Z,8.70
2022-12-29T06:20:14.050Z,8.71
2022-12-29T06:22:42.909Z,8.69
2022-12-29T06:25:11.252Z,8.72
2022-12-29T06:27:40.394Z,8.73
2022-12-29T06:30:11.721Z,8.71
2022-12-29T06:32:41.261Z,8.78
2022-12-29T06:35:12.351Z,8.80
2022-12-29T06:37:52.873Z,8.81
2022-12-29T06:40:22.665Z,8.80
2022-12-29T06:43:02.580Z,8.79
2022-12-29T06:46:04.265Z,8.77
2022-12-29T06:48:32.042Z,8.72
2022-12-29T06:50:59.890Z,8.68
2022-12-29T06:53:27.844Z,8.64
2022-12-29T06:55:57.527Z,8.61
2022-12-29T06:58:25.371Z,8.58
2022-12-29T07:00:53.425Z,8.56
2022-12-29T07:03:22.755Z,8.50
2022-12-29T07:05:50.705Z,8.43
2022-12-29T07:08:18.785Z,8.40
2022-12-29T07:10:47.680Z,8.34
2022-12-29T07:13:15.565Z,8.26
2022-12-29T07:15:43.532Z,8.26
2022-12-29T07:18:11.354Z,8.21
2022-12-29T07:20:40.583Z,8.15
2022-12-29T07:23:08.463Z,8.09
2022-12-29T07:25:36.958Z,8.06
2022-12-29T07:28:05.236Z,8.02
2022-12-29T07:30:33.153Z,8.02
2022-12-29T07:33:01.054Z,8.03
2022-12-29T07:35:29.148Z,8.02
2022-12-29T07:37:58.333Z,7.98
2022-12-29T07:40:26.621Z,7.95
2022-12-29T07:42:54.476Z,7.97
2022-12-29T07:45:31.872Z,7.97
2022-12-29T07:48:10.460Z,7.98
2022-12-29T07:50:39.004Z,7.97
2022-12-29T07:53:08.175Z,7.95
2022-12-29T07:55:36.118Z,7.93
2022-12-29T07:58:04.298Z,7.91
2022-12-29T08:00:32.184Z,7.91
2022-12-29T08:03:00.346Z,7.89
2022-12-29T08:05:28.235Z,7.91
2022-12-29T08:07:56.016Z,7.90
2022-12-29T08:10:25.216Z,7.90
2022-12-29T08:12:53.827Z,7.92
2022-12-29T08:15:24.447Z,7.94
2022-12-29T08:17:55.398Z,7.94
2022-12-29T08:20:23.182Z,7.98
2022-12-29T08:23:16.847Z,8.01
2022-12-29T08:25:46.066Z,8.00
2022-12-29T08:28:13.906Z,8.02
2022-12-29T08:30:41.808Z,8.04
2022-12-29T08:33:09.705Z,8.04
2022-12-29T08:35:37.548Z,8.03
2022-12-29T08:38:05.578Z,8.05
2022-12-29T08:40:33.411Z,8.06
2022-12-29T08:43:02.617Z,8.04
2022-12-29T08:45:30.415Z,8.07
2022-12-29T08:47:58.171Z,8.09
2022-12-29T08:50:26.455Z,8.11
2022-12-29T08:52:54.227Z,8.09
2022-12-29T08:55:22.023Z,8.15
2022-12-29T08:57:50.065Z,8.19
2022-12-29T09:00:22.713Z,8.26
2022-12-29T09:02:50.951Z,8.34
2022-12-29T09:05:19.001Z,8.37
2022-12-29T09:07:46.967Z,8.44
2022-12-29T09:10:14.781Z,8.47
2022-12-29T09:12:42.888Z,8.68
2022-12-29T09:15:11.373Z,8.78
2022-12-29T09:17:43.765Z,8.80
2022-12-29T09:20:12.615Z,8.87
2022-12-29T09:22:40.636Z,9.00
2022-12-29T09:25:10.398Z,9.12
2022-12-29T09:27:38.636Z,9.17
2022-12-29T09:30:08.890Z,9.28
2022-12-29T09:32:43.602Z,9.38
2022-12-29T09:35:14.707Z,9.49
2022-12-29T09:37:42.907Z,9.62
2022-12-29T09:40:26.101Z,9.61
2022-12-29T09:43:06.551Z,9.68
2022-12-29T09:45:38.526Z,9.77
2022-12-29T09:48:13.837Z,9.79
2022-12-29T09:50:49.041Z,9.86
2022-12-29T09:53:21.738Z,9.90
2022-12-29T09:55:52.368Z,9.94
2022-12-29T09:58:26.439Z,9.98
2022-12-29T10:01:00.730Z,10.03
2022-12-29T10:03:34.571Z,10.12
2022-12-29T10:06:11.641Z,10.10
2022-12-29T10:08:44.452Z,10.04
2022-12-29T10:11:26.606Z,10.06
2022-12-29T10:14:16.284Z,10.10
2022-12-29T10:16:53.443Z,10.07
2022-12-29T10:19:35.240Z,10.13
2022-12-29T10:22:22.020Z,10.13
2022-12-29T10:24:54.164Z,10.20
2022-12-29T10:27:22.241Z,10.27
2022-12-29T10:29:54.279Z,10.28
2022-12-29T10:32:31.157Z,10.30
2022-12-29T10:35:05.416Z,10.34
2022-12-29T10:37:44.179Z,10.33
2022-12-29T10:40:21.484Z,10.39
2022-12-29T10:42:54.369Z,10.47
2022-12-29T10:45:25.616Z,10.52
2022-12-29T10:47:59.555Z,10.64
2022-12-29T10:50:30.470Z,10.65
2022-12-29T10:53:03.081Z,10.64
2022-12-29T10:55:34.873Z,10.72
2022-12-29T10:58:06.724Z,10.74
2022-12-29T11:00:35.380Z,10.73
2022-12-29T11:03:48.740Z,10.66
2022-12-29T11:06:23.593Z,10.65
2022-12-29T11:08:58.436Z,10.63
2022-12-29T11:11:29.053Z,10.61
2022-12-29T11:14:03.881Z,10.58
2022-12-29T11:16:33.853Z,10.61
2022-12-29T11:19:02.786Z,10.57
2022-12-29T11:21:40.568Z,10.53
2022-12-29T11:24:22.828Z,10.49
2022-12-29T11:26:53.914Z,10.44
2022-12-29T11:29:27.228Z,10.43
2022-12-29T11:31:58.390Z,10.36
2022-12-29T11:34:28.022Z,10.32
2022-12-29T11:37:02.567Z,10.31
2022-12-29T11:39:38.903Z,10.30
2022-12-29T11:42:14.528Z,10.31
2022-12-29T11:44:45.796Z,10.28
2022-12-29T11:47:30.689Z,10.21
2022-12-29T11:50:01.523Z,10.21
2022-12-29T11:52:34.200Z,10.18
2022-12-29T11:55:06.449Z,10.13
2022-12-29T11:57:37.004Z,10.10
2022-12-29T12:00:17.884Z,10.07
2022-12-29T12:02:50.908Z,10.05
2022-12-29T12:05:27.972Z,10.04
2022-12-29T12:08:01.619Z,10.03
2022-12-29T12:10:39.492Z,10.01
2022-12-29T12:13:16.493Z,9.98
2022-12-29T12:15:52.843Z,9.95
2022-12-29T12:18:43.778Z,9.94
2022-12-29T12:21:20.637Z,9.94
2022-12-29T12:24:09.609Z,9.96
2022-12-29T12:26:44.647Z,9.95
2022-12-29T12:29:16.386Z,9.94
2022-12-29T12:31:49.265Z,9.94
2022-12-29T12:34:24.687Z,9.96
2022-12-29T12:37:11.082Z,9.91
2022-12-29T12:39:50.591Z,9.86
2022-12-29T12:42:30.860Z,9.80
2022-12-29T12:45:34.308Z,9.78
2022-12-29T12:48:17.525Z,9.79
2022-12-29T12:50:54.169Z,9.79
2022-12-29T12:53:48.860Z,9.80
2022-12-29T12:56:46.081Z,9.82
2022-12-29T12:59:32.413Z,9.82
2022-12-29T13:02:10.355Z,9.86
2022-12-29T13:05:09.973Z,9.88
2022-12-29T13:07:49.030Z,9.87
2022-12-29T13:10:29.503Z,9.89
2022-12-29T13:13:14.505Z,9.91
2022-12-29T13:15:53.345Z,9.93
2022-12-29T13:18:28.986Z,9.93
2022-12-29T13:21:06.477Z,9.92
2022-12-29T13:23:44.138Z,9.90
2022-12-29T13:26:21.449Z,9.87
2022-12-29T13:28:57.429Z,9.85
2022-12-29T13:31:35.785Z,9.83
2022-12-29T13:34:14.250Z,9.83
2022-12-29T13:36:46.086Z,9.84
2022-12-29T13:39:21.572Z,9.84
2022-12-29T13:41:52.965Z,9.83
2022-12-29T13:44:26.308Z,9.85
2022-12-29T13:46:58.479Z,9.83
2022-12-29T13:49:27.975Z,9.82
2022-12-29T13:51:58.207Z,9.80
2022-12-29T13:54:37.373Z,9.79
2022-12-29T13:57:12.444Z,9.80
2022-12-29T13:59:46.418Z,9.83
2022-12-29T14:02:26.957Z,9.83
2022-12-29T14:05:00.880Z,9.83
2022-12-29T14:07:30.159Z,9.83
2022-12-29T14:09:59.386Z,9.81
2022-12-29T14:12:33.544Z,9.78
2022-12-29T14:15:17.496Z,9.73
2022-12-29T14:18:01.380Z,9.72
2022-12-29T14:20:29.426Z,9.69
2022-12-29T14:23:00.047Z,9.71
2022-12-29T14:25:58.180Z,9.70
2022-12-29T14:28:27.345Z,9.66
2022-12-29T14:30:57.049Z,9.64
2022-12-29T14:33:29.303Z,9.62
2022-12-29T14:35:58.148Z,9.59
2022-12-29T14:38:33.915Z,9.57
2022-12-29T14:41:32.834Z,9.56
2022-12-29T14:44:16.843Z,9.54
2022-12-29T14:46:48.548Z,9.52
2022-12-29T14:49:21.321Z,9.48
2022-12-29T14:51:50.228Z,9.47
2022-12-29T14:54:44.259Z,9.43
2022-12-29T14:57:20.837Z,9.41
2022-12-29T14:59:50.596Z,9.38
2022-12-29T15:02:23.244Z,9.36
2022-12-29T15:04:55.241Z,9.34
2022-12-29T15:07:23.321Z,9.34
2022-12-29T15:09:58.569Z,9.30
2022-12-29T15:12:38.235Z,9.30
2022-12-29T15:15:20.257Z,9.29
2022-12-29T15:17:48.630Z,9.29
2022-12-29T15:20:24.777Z,9.27
2022-12-29T15:22:57.263Z,9.26
2022-12-29T15:25:27.124Z,9.24
2022-12-29T15:27:58.036Z,9.26
2022-12-29T15:30:26.089Z,9.23
2022-12-29T15:32:54.260Z,9.22
2022-12-29T15:35:33.472Z,9.21
2022-12-29T15:38:04.194Z,9.24
2022-12-29T15:40:34.397Z,9.22
2022-12-29T15:43:15.192Z,9.21
2022-12-29T15:45:43.297Z,9.20
2022-12-29T15:48:19.199Z,9.21
2022-12-29T15:50:49.406Z,9.21
2022-12-29T15:53:25.768Z,9.19
2022-12-29T15:55:58.342Z,9.17
2022-12-29T15:58:31.245Z,8.98
2022-12-29T16:01:01.666Z,8.92
2022-12-29T16:03:34.743Z,8.83
2022-12-29T16:06:12.996Z,8.68
2022-12-29T16:08:42.051Z,8.61
2022-12-29T16:11:27.667Z,8.56
2022-12-29T16:13:57.450Z,8.37
2022-12-29T16:16:30.131Z,8.43
2022-12-29T16:18:59.210Z,8.34
2022-12-29T16:21:31.955Z,8.35
2022-12-29T16:24:04.165Z,8.34
2022-12-29T16:26:32.141Z,8.35
2022-12-29T16:29:03.142Z,8.33
2022-12-29T16:31:36.950Z,8.30
2022-12-29T16:34:23.503Z,8.31
2022-12-29T16:36:58.408Z,8.24
2022-12-29T16:39:29.609Z,8.23
2022-12-29T16:41:57.777Z,8.20
2022-12-29T16:44:28.407Z,8.18
2022-12-29T16:47:20.012Z,8.15
2022-12-29T16:49:53.379Z,8.13
2022-12-29T16:52:25.851Z,8.08
2022-12-29T16:54:57.098Z,8.07
2022-12-29T16:57:29.040Z,8.04
2022-12-29T17:00:00.415Z,8.05
2022-12-29T17:02:31.542Z,8.04
2022-12-29T17:04:59.479Z,8.03
2022-12-29T17:07:30.028Z,8.01
2022-12-29T17:09:57.920Z,8.02
2022-12-29T17:12:28.645Z,8.01
2022-12-29T17:14:59.535Z,8.00
2022-12-29T17:17:34.140Z,7.99
2022-12-29T17:20:05.408Z,7.99
2022-12-29T17:22:35.016Z,7.97
2022-12-29T17:25:03.848Z,7.97
2022-12-29T17:27:37.231Z,7.94
2022-12-29T17:30:11.505Z,7.93
2022-12-29T17:32:39.694Z,7.94
2022-12-29T17:35:14.309Z,7.95
2022-12-29T17:37:44.166Z,7.93
2022-12-29T17:40:15.661Z,7.89
2022-12-29T17:42:46.195Z,7.82
2022-12-29T17:45:19.263Z,7.83
2022-12-29T17:47:47.505Z,7.85
2022-12-29T17:50:17.169Z,7.86
2022-12-29T17:52:51.300Z,7.88
2022-12-29T17:55:21.027Z,7.85
2022-12-29T17:57:49.307Z,7.82
2022-12-29T18:00:19.206Z,7.84
2022-12-29T18:02:47.266Z,7.81
2022-12-29T18:05:22.559Z,7.82
2022-12-29T18:07:52.776Z,7.80
2022-12-29T18:10:20.881Z,7.76
2022-12-29T18:12:50.632Z,7.76
2022-12-29T18:15:22.009Z,7.76
2022-12-29T18:17:50.399Z,7.70
2022-12-29T18:20:18.294Z,7.71
2022-12-29T18:22:46.124Z,7.73
2022-12-29T18:25:26.028Z,7.70
2022-12-29T18:27:53.962Z,7.69
2022-12-29T18:30:21.875Z,7.68
2022-12-29T18:32:49.723Z,7.62
2022-12-29T18:36:01.659Z,7.68
2022-12-29T18:38:51.821Z,7.65
2022-12-29T18:41:23.874Z,7.65
2022-12-29T18:43:52.608Z,7.59
2022-12-29T18:46:23.574Z,7.59
2022-12-29T18:48:51.930Z,7.59
2022-12-29T18:51:22.247Z,7.57
2022-12-29T18:53:50.853Z,7.57
2022-12-29T18:56:18.674Z,7.60
2022-12-29T18:58:47.882Z,7.51
2022-12-29T19:01:20.488Z,7.50
2022-12-29T19:03:48.656Z,7.49
2022-12-29T19:06:16.622Z,7.48
2022-12-29T19:08:44.501Z,7.51
2022-12-29T19:11:12.437Z,7.47
2022-12-29T19:13:40.493Z,7.48
2022-12-29T19:16:15.171Z,7.47
2022-12-29T19:18:45.405Z,7.44
2022-12-29T19:21:15.459Z,7.42
2022-12-29T19:23:43.426Z,7.40
2022-12-29T19:26:28.080Z,7.41
2022-12-29T19:28:55.880Z,7.38
2022-12-29T19:31:25.405Z,7.38
2022-12-29T19:33:53.721Z,7.39
2022-12-29T19:36:22.610Z,7.37
2022-12-29T19:38:50.549Z,7.35
2022-12-29T19:41:18.463Z,7.30
2022-12-29T19:43:46.382Z,7.27
2022-12-29T19:46:17.164Z,7.28
2022-12-29T19:48:46.350Z,7.27
2022-12-29T19:51:17.122Z,7.22
2022-12-29T19:53:45.574Z,7.23
2022-12-29T19:56:14.415Z,7.18
2022-12-29T19:58:46.872Z,7.19
2022-12-29T20:01:18.210Z,7.17
2022-12-29T20:03:48.314Z,7.17
2022-12-29T20:06:17.273Z,7.13
2022-12-29T20:08:45.664Z,7.12
2022-12-29T20:11:16.299Z,7.12
2022-12-29T20:13:44.960Z,7.10
2022-12-29T20:16:15.820Z,7.13
2022-12-29T20:18:44.103Z,7.08
2022-12-29T20:21:15.760Z,7.09
2022-12-29T20:23:44.970Z,7.08
2022-12-29T20:26:15.631Z,7.06
2022-12-29T20:28:43.724Z,7.03
2022-12-29T20:31:17.262Z,7.04
2022-12-29T20:33:45.437Z,7.01
2022-12-29T20:36:17.071Z,7.04
2022-12-29T20:38:46.195Z,6.98
2022-12-29T20:41:15.136Z,7.01
2022-12-29T20:43:43.465Z,6.95
2022-12-29T20:46:11.777Z,6.90
2022-12-29T20:48:39.598Z,6.88
2022-12-29T20:51:07.569Z,6.88
2022-12-29T20:53:38.773Z,6.86
2022-12-29T20:56:11.608Z,6.85
2022-12-29T20:59:00.253Z,6.88
2022-12-29T21:01:27.630Z,6.84
2022-12-29T21:03:55.678Z,6.84
2022-12-29T21:06:23.636Z,6.80
2022-12-29T21:08:54.994Z,6.78
2022-12-29T21:11:23.202Z,6.74
2022-12-29T21:13:51.621Z,6.72
2022-12-29T21:16:21.212Z,6.71
2022-12-29T21:18:49.319Z,6.72
2022-12-29T21:21:19.029Z,6.68
2022-12-29T21:23:46.957Z,6.71
2022-12-29T21:26:19.062Z,6.70
2022-12-29T21:28:47.295Z,6.71
2022-12-29T21:31:25.766Z,6.68
2022-12-29T21:33:54.123Z,6.67
2022-12-29T21:36:22.727Z,6.65
2022-12-29T21:38:50.696Z,6.63
2022-12-29T21:41:20.840Z,6.58
2022-12-29T21:44:09.723Z,6.62
2022-12-29T21:46:38.390Z,6.56
2022-12-29T21:49:07.625Z,6.50
2022-12-29T21:51:54.361Z,6.48
2022-12-29T21:54:41.714Z,6.46
2022-12-29T21:57:16.608Z,6.43
2022-12-29T22:00:06.306Z,6.40
2022-12-29T22:02:54.689Z,6.40
2022-12-29T22:05:40.312Z,6.31
2022-12-29T22:08:25.413Z,6.38
2022-12-29T22:11:10.729Z,6.34
2022-12-29T22:13:40.483Z,6.30
2022-12-29T22:16:11.119Z,6.28
2022-12-29T22:18:39.730Z,6.26
2022-12-29T22:21:09.615Z,6.24
2022-12-29T22:23:38.245Z,6.27
2022-12-29T22:26:07.123Z,6.21
2022-12-29T22:28:37.835Z,6.21
2022-12-29T22:31:08.457Z,6.24
2022-12-29T22:33:36.382Z,6.19
2022-12-29T22:36:04.552Z,6.22
2022-12-29T22:38:33.508Z,6.18
2022-12-29T22:41:01.400Z,6.23
2022-12-29T22:43:30.550Z,6.18
2022-12-29T22:46:03.937Z,6.19
2022-12-29T22:48:34.181Z,6.17
2022-12-29T22:51:02.140Z,6.18
2022-12-29T22:53:30.050Z,6.14
2022-12-29T22:56:06.212Z,6.15
2022-12-29T22:58:34.469Z,6.14
2022-12-29T23:01:02.865Z,6.18
2022-12-29T23:03:30.718Z,6.14
2022-12-29T23:06:01.815Z,6.10
2022-12-29T23:08:33.043Z,6.10
2022-12-29T23:11:01.280Z,6.10
2022-12-29T23:13:29.523Z,6.09
2022-12-29T23:15:57.447Z,6.12
2022-12-29T23:18:26.865Z,6.12
2022-12-29T23:20:54.714Z,6.09
2022-12-29T23:23:41.770Z,6.05
2022-12-29T23:26:14.224Z,6.04
2022-12-29T23:28:42.512Z,6.05
2022-12-29T23:31:10.836Z,6.07
2022-12-29T23:33:38.638Z,6.04
2022-12-29T23:36:07.351Z,6.07
2022-12-29T23:38:36.701Z,6.05
2022-12-29T23:41:04.624Z,6.06
2022-12-29T23:43:32.685Z,6.03
2022-12-29T23:46:07.069Z,6.03
2022-12-29T23:48:34.973Z,6.03
2022-12-29T23:51:02.733Z,6.07
2022-12-29T23:53:30.537Z,6.02
2022-12-29T23:55:59.882Z,6.02
2022-12-29T23:58:31.234Z,6.03
